Time;durP1;ratioP1;P1;durP2;ratioP2;P2;SDS_P1;SDS_P2;PMS_P1;PMS_P2;Temp;Humidity;BMP_temperature;BMP_pressure;BME280_temperature;BME280_humidity;BME280_pressure;Samples;Min_cycle;Max_cycle;Signal;HPM_P1;HPM_P2
2024/02/21 00:01:05;;;;;;;26.95;9.95;;;7.20;99.90;;;-144.05;77.83;57046.38;5016739;28;20049;-77
2024/02/21 00:03:31;;;;;;;22.63;11.10;;;7.30;99.90;;;-144.05;78.03;57035.75;5015800;28;20167;-77
2024/02/21 00:05:57;;;;;;;22.88;10.73;;;7.00;99.90;;;-144.05;78.31;57023.00;5013942;28;20024;-77
2024/02/21 00:08:22;;;;;;;22.38;9.63;;;7.20;99.90;;;-144.05;78.05;57023.00;5016565;28;20023;-77
2024/02/21 00:10:49;;;;;;;32.75;10.65;;;6.90;99.90;;;-144.05;78.10;57023.00;5015720;28;20060;-77
2024/02/21 00:13:15;;;;;;;29.73;10.05;;;;;;;-144.05;78.39;57027.25;5016656;28;20507;-78
2024/02/21 00:15:41;;;;;;;28.88;10.43;;;7.50;99.90;;;-144.05;78.62;57010.25;5017055;28;20033;-78
2024/02/21 00:18:07;;;;;;;28.90;10.50;;;6.60;99.90;;;-144.05;78.98;57016.63;5017237;28;20160;-79
2024/02/21 00:20:33;;;;;;;24.73;10.95;;;;;;;-144.05;79.46;57035.75;5016853;28;20041;-79
2024/02/21 00:22:59;;;;;;;23.98;9.43;;;6.90;99.90;;;-144.05;78.61;57001.75;5017454;28;20037;-77
2024/02/21 00:25:24;;;;;;;19.90;9.95;;;6.80;99.90;;;-144.05;79.65;57020.88;5016656;28;20049;-79
2024/02/21 00:27:50;;;;;;;26.08;10.90;;;6.60;99.90;;;-144.05;79.69;57012.38;5017860;28;20034;-78
2024/02/21 00:30:16;;;;;;;25.15;10.73;;;7.80;99.90;;;-144.05;79.77;57016.63;5019690;28;20026;-77
2024/02/21 00:32:42;;;;;;;28.63;11.02;;;;;;;-144.05;80.03;56997.50;5018795;28;20029;-78
2024/02/21 00:35:09;;;;;;;26.00;9.73;;;6.80;99.90;;;-144.05;80.05;57033.63;5019209;28;20037;-78
2024/02/21 00:37:34;;;;;;;29.17;10.55;;;7.70;99.90;;;-144.05;80.39;57020.88;5018399;28;20033;-76
2024/02/21 00:40:00;;;;;;;25.23;10.85;;;7.10;99.90;;;-144.05;80.39;57025.13;5019111;28;20041;-79
2024/02/21 00:42:26;;;;;;;26.10;10.43;;;;;;;-144.05;80.05;57027.25;5019310;28;20030;-79
2024/02/21 00:44:53;;;;;;;29.00;10.10;;;;;;;-144.05;79.80;57010.25;5018145;28;20122;-79
2024/02/21 00:47:19;;;;;;;29.48;11.52;;;7.50;99.90;;;-144.05;80.22;57029.38;5017576;28;20064;-78
2024/02/21 00:49:45;;;;;;;26.17;9.70;;;10.60;99.90;;;-144.05;80.15;57020.88;5017539;28;20104;-79
2024/02/21 00:52:11;;;;;;;25.67;11.02;;;;;;;-144.05;80.37;57071.84;5018390;28;20092;-78
2024/02/21 00:54:37;;;;;;;30.17;11.00;;;;;;;-144.05;80.04;57029.38;5017512;28;20030;-76
2024/02/21 00:57:04;;;;;;;27.73;10.50;;;;;;;-144.05;79.78;57056.97;5015121;28;20030;-77
2024/02/21 00:59:29;;;;;;;25.60;10.48;;;10.70;99.90;;;-144.05;79.88;57031.50;5015087;28;20510;-77
2024/02/21 01:01:56;;;;;;;32.42;12.98;;;;;;;-144.05;80.31;57008.13;5014619;28;20042;-77
2024/02/21 01:04:24;;;;;;;31.80;11.30;;;;;;;-144.05;80.95;57048.50;5012925;28;20124;-76
2024/02/21 01:06:50;;;;;;;24.33;10.68;;;;;;;-144.05;80.69;57025.13;5012749;28;20037;-77
2024/02/21 01:09:16;;;;;;;26.83;11.02;;;7.00;99.90;;;-144.05;80.74;57031.50;5015022;28;20472;-77
2024/02/21 01:11:42;;;;;;;29.27;10.88;;;7.20;99.90;;;-144.05;80.94;56993.25;5013345;28;20054;-77
2024/02/21 01:14:08;;;;;;;23.63;10.90;;;7.00;99.90;;;-144.05;80.75;57069.72;5013830;28;20053;-77
2024/02/21 01:16:33;;;;;;;31.83;12.40;;;7.60;99.90;;;-144.05;80.42;57035.75;5015042;28;20109;-77
2024/02/21 01:19:00;;;;;;;31.90;11.10;;;;;;;-144.05;79.87;57033.63;5013987;28;20030;-77
2024/02/21 01:21:26;;;;;;;31.83;12.15;;;7.40;99.90;;;-144.05;79.43;57012.38;5015409;28;20088;-79
2024/02/21 01:23:52;;;;;;;29.83;12.20;;;;;;;-144.05;80.26;57042.13;5015257;28;20038;-76
2024/02/21 01:26:18;;;;;;;32.08;10.88;;;7.30;99.90;;;-144.05;79.40;57035.75;5013446;28;20029;-76
2024/02/21 01:28:44;;;;;;;24.80;11.52;;;7.50;99.90;;;-144.05;79.18;57031.50;5013349;28;20029;-75
2024/02/21 01:31:10;;;;;;;29.75;11.93;;;7.60;99.90;;;-144.05;79.10;57069.72;5013463;28;20105;-74
2024/02/21 01:33:36;;;;;;;25.00;11.80;;;7.10;99.90;;;-144.05;79.19;57025.13;5013655;28;20129;-77
2024/02/21 01:36:08;;;;;;;29.67;11.02;;;7.20;99.90;;;-144.05;78.73;57018.75;5013556;28;20172;-77
2024/02/21 01:38:34;;;;;;;30.05;12.13;;;7.00;99.90;;;-144.05;78.32;57010.25;5013320;28;20026;-77
2024/02/21 01:41:01;;;;;;;23.42;9.93;;;7.40;99.90;;;-144.05;78.97;57025.13;5016722;28;20061;-78
2024/02/21 01:43:27;;;;;;;30.80;11.43;;;7.10;99.90;;;-144.05;79.12;57025.13;5017111;28;20025;-78
2024/02/21 01:45:56;;;;;;;30.42;10.98;;;7.10;99.90;;;-144.05;79.20;57016.63;5017044;28;20125;-77
2024/02/21 01:48:23;;;;;;;29.90;11.13;;;10.90;99.90;;;-144.05;78.92;56999.63;5017247;28;20396;-77
2024/02/21 01:50:53;;;;;;;28.17;11.55;;;7.30;99.90;;;-144.05;78.87;57027.25;5016679;28;20059;-79
2024/02/21 01:53:32;;;;;;;21.00;10.68;;;8.00;99.90;;;-144.05;79.32;57048.50;5015899;28;20049;-78
2024/02/21 01:55:58;;;;;;;24.27;11.27;;;7.80;99.90;;;-144.05;79.26;57033.63;5011645;28;20026;-77
2024/02/21 01:58:25;;;;;;;27.90;11.23;;;7.40;99.90;;;-144.05;79.05;57006.00;5013924;28;20025;-77
2024/02/21 02:00:53;;;;;;;21.90;10.45;;;7.10;99.90;;;-144.05;78.78;57069.72;5013769;28;20419;-78
2024/02/21 02:03:19;;;;;;;25.38;10.90;;;7.80;99.90;;;-144.05;79.10;57027.25;5015892;28;20030;-78
2024/02/21 02:05:50;;;;;;;24.98;11.18;;;7.40;99.90;;;-144.05;78.87;57031.50;5015803;28;20390;-79
2024/02/21 02:08:19;;;;;;;28.35;11.18;;;8.60;99.90;;;-144.05;78.93;57018.75;5014498;28;20041;-77
2024/02/21 02:10:46;;;;;;;25.70;9.93;;;13.70;99.90;;;-144.05;78.70;56997.50;5015323;28;20065;-77
2024/02/21 02:13:12;;;;;;;26.83;10.55;;;10.70;99.90;;;-144.05;79.24;57023.00;5014690;28;20034;-77
2024/02/21 02:15:49;;;;;;;26.02;10.82;;;6.70;99.90;;;-144.05;79.58;57016.63;5013454;28;20022;-77
2024/02/21 02:18:19;;;;;;;28.30;10.85;;;7.10;99.90;;;-144.05;79.33;57025.13;5013819;28;20041;-77
2024/02/21 02:20:46;;;;;;;26.55;9.82;;;7.90;99.90;;;-144.05;78.90;57012.38;5013904;28;20030;-77
2024/02/21 02:23:25;;;;;;;29.45;10.60;;;8.50;99.90;;;-144.05;79.27;57012.38;5013343;28;20025;-77
2024/02/21 02:25:52;;;;;;;28.13;11.15;;;10.30;99.90;;;-144.05;79.32;56991.13;5014249;28;20025;-75
2024/02/21 02:28:19;;;;;;;25.55;11.70;;;10.60;99.90;;;-144.05;79.49;57014.50;5013081;28;20045;-76
2024/02/21 02:30:46;;;;;;;27.65;11.02;;;7.20;99.90;;;-144.05;80.55;57001.75;5012414;28;20041;-76
2024/02/21 02:33:12;;;;;;;33.55;11.45;;;7.00;99.90;;;-144.05;79.55;57020.88;5012846;28;20037;-76
2024/02/21 02:35:38;;;;;;;26.33;11.35;;;7.50;99.90;;;-144.05;79.43;57029.38;5013061;28;20037;-77
2024/02/21 02:38:04;;;;;;;32.00;11.90;;;7.10;99.90;;;-144.05;79.33;57027.25;5028700;28;20030;-76
2024/02/21 02:40:33;;;;;;;26.50;11.45;;;7.40;99.90;;;-144.05;80.02;57001.75;5013929;28;20018;-77
2024/02/21 02:43:00;;;;;;;28.80;10.50;;;8.00;99.90;;;-144.05;80.11;57020.88;5010382;28;20103;-77
2024/02/21 02:45:26;;;;;;;26.75;10.93;;;6.70;99.90;;;-144.05;80.18;56997.50;5013259;28;20041;-77
2024/02/21 02:47:59;;;;;;;24.95;11.35;;;7.00;99.90;;;-144.05;80.29;57014.50;5011741;28;20132;-77
2024/02/21 02:50:28;;;;;;;27.67;10.75;;;6.70;99.90;;;-144.05;80.07;57046.38;5013266;28;20029;-77
2024/02/21 02:52:55;;;;;;;30.38;10.68;;;7.40;99.90;;;-144.05;79.78;57016.63;5013618;28;20034;-76
2024/02/21 02:55:21;;;;;;;30.63;11.13;;;;;;;-144.05;79.64;57040.00;5012577;28;20479;-77
2024/02/21 02:57:48;;;;;;;28.38;11.27;;;;;;;-144.05;80.42;57052.75;5011349;28;20124;-76
2024/02/21 03:00:15;;;;;;;28.88;10.60;;;8.40;99.90;;;-144.05;79.80;57035.75;5012026;28;20022;-76
2024/02/21 03:02:46;;;;;;;29.50;10.68;;;6.70;99.90;;;-144.05;79.86;57025.13;5012869;28;20087;-76
2024/02/21 03:05:22;;;;;;;25.25;11.35;;;8.00;99.90;;;-144.05;79.17;57010.25;5012780;28;20063;-77
2024/02/21 03:07:48;;;;;;;;;;;8.40;99.90;;;-144.05;80.05;57023.00;5011363;28;20030;-76
2024/02/21 03:10:18;;;;;;;26.52;10.32;;;8.40;99.90;;;-144.05;80.20;57003.88;5013440;28;19932;-77
2024/02/21 03:12:44;;;;;;;29.30;9.98;;;;;;;-144.05;79.79;57012.38;5011984;28;20026;-76
2024/02/21 03:15:11;;;;;;;27.15;10.23;;;9.00;99.90;;;-144.05;79.15;57016.63;5031537;28;20042;-78
2024/02/21 03:17:38;;;;;;;27.77;11.15;;;7.50;99.90;;;-144.05;79.65;57035.75;5015945;28;20030;-77
2024/02/21 03:20:08;;;;;;;34.25;10.70;;;6.90;99.90;;;-144.05;79.81;57025.13;5016420;28;20127;-76
2024/02/21 03:22:34;;;;;;;23.48;9.93;;;7.40;99.90;;;-144.05;79.19;56997.50;5014841;28;20021;-77
2024/02/21 03:25:00;;;;;;;17.90;9.40;;;;;;;-144.05;79.50;57010.25;5017804;28;20039;-78
2024/02/21 03:27:27;;;;;;;22.65;9.23;;;10.60;99.90;;;-144.05;79.61;57012.38;5016050;28;20045;-79
2024/02/21 03:29:53;;;;;;;22.83;9.65;;;;;;;-144.05;79.01;57031.50;5016082;28;20029;-77
2024/02/21 03:32:19;;;;;;;33.03;11.27;;;11.00;99.90;;;-144.05;78.88;57010.25;5015876;28;20033;-77
2024/02/21 03:34:45;;;;;;;23.38;10.85;;;7.40;99.90;;;-144.05;79.49;57042.13;5016488;28;20030;-77
2024/02/21 03:37:13;;;;;;;19.90;9.25;;;;;;;-144.05;78.81;56974.16;5014356;28;20455;-77
2024/02/21 03:39:40;;;;;;;28.30;9.88;;;13.80;99.90;;;-144.05;78.91;57018.75;5016630;28;20048;-78
2024/02/21 03:42:06;;;;;;;23.77;9.32;;;6.90;99.90;;;-144.05;78.83;57040.00;5031308;28;20034;-77
2024/02/21 03:44:33;;;;;;;28.60;10.70;;;;;;;-144.05;78.48;57008.13;5016242;28;20450;-77
2024/02/21 03:47:00;;;;;;;22.90;9.40;;;7.10;99.90;;;-144.05;78.75;57014.50;5015970;28;20022;-77
2024/02/21 03:49:26;;;;;;;20.70;9.23;;;7.30;99.90;;;-144.05;78.54;57027.25;5015856;28;20026;-77
2024/02/21 03:51:53;;;;;;;24.48;9.77;;;;;;;-144.05;78.28;57031.50;5014307;28;20042;-77
2024/02/21 03:54:20;;;;;;;24.05;9.13;;;6.90;99.90;;;-144.05;78.77;57044.25;5015258;28;20030;-77
2024/02/21 03:56:48;;;;;;;30.02;9.63;;;;;;;-144.05;78.59;57044.25;5014111;28;20033;-78
2024/02/21 03:59:15;;;;;;;23.10;8.55;;;7.00;99.90;;;-144.05;78.36;57042.13;5015780;28;20030;-79
2024/02/21 04:01:41;;;;;;;25.65;9.95;;;7.00;99.90;;;-144.05;78.47;57029.38;5016293;28;20029;-75
2024/02/21 04:04:07;;;;;;;22.85;9.55;;;10.60;99.90;;;-144.05;78.91;57050.63;5015724;28;20033;-77
2024/02/21 04:06:33;;;;;;;20.13;9.88;;;10.70;99.90;;;-144.05;78.87;57027.25;5015283;28;20018;-77
2024/02/21 04:08:59;;;;;;;23.85;9.38;;;10.60;99.90;;;-144.05;77.98;57012.38;5013907;28;20033;-78
2024/02/21 04:11:25;;;;;;;22.17;9.48;;;7.10;99.90;;;-144.05;78.56;57001.75;5015607;28;20053;-77
2024/02/21 04:13:51;;;;;;;17.75;9.70;;;;;;;-144.05;78.76;57025.13;5015452;28;20061;-79
2024/02/21 04:16:18;;;;;;;22.48;9.77;;;;;;;-144.05;78.81;57003.88;5014551;28;20084;-76
2024/02/21 04:18:44;;;;;;;18.67;8.95;;;10.40;99.90;;;-144.05;78.45;56984.78;5014262;28;20057;-75
2024/02/21 04:21:16;;;;;;;29.05;8.73;;;7.80;99.90;;;-144.05;79.12;57025.13;5014264;28;20030;-77
2024/02/21 04:23:42;;;;;;;22.90;9.30;;;7.50;99.90;;;-144.05;78.83;57012.38;5014402;28;20026;-75
2024/02/21 04:26:08;;;;;;;18.38;9.90;;;11.00;99.90;;;-144.05;79.22;57029.38;5015666;28;20522;-76
2024/02/21 04:28:34;;;;;;;24.10;10.13;;;7.60;99.90;;;-144.05;79.04;57027.25;5012879;28;20030;-77
2024/02/21 04:31:00;;;;;;;33.30;9.48;;;7.00;99.90;;;-144.05;79.97;57012.38;5014339;28;20080;-76
2024/02/21 04:33:26;;;;;;;24.30;9.00;;;;;;;-144.05;78.68;57018.75;5029074;28;20471;-77
2024/02/21 04:35:54;;;;;;;23.02;9.25;;;7.80;99.90;;;-144.05;78.40;57008.13;5013588;28;20072;-77
2024/02/21 04:38:21;;;;;;;22.75;9.07;;;;;;;-144.05;78.82;57027.25;5013947;28;20022;-76
2024/02/21 04:40:47;;;;;;;19.75;9.20;;;;;;;-144.05;79.05;57018.75;5014231;28;20495;-76
2024/02/21 04:43:13;;;;;;;22.05;9.30;;;10.90;99.90;;;-144.05;78.55;57016.63;5012798;28;20033;-75
2024/02/21 04:45:38;;;;;;;23.98;9.82;;;8.40;99.90;;;-144.05;78.41;57003.88;5013786;28;20026;-77
2024/02/21 04:48:05;;;;;;;23.67;9.88;;;7.80;99.90;;;-144.05;78.04;57035.75;5014014;28;20022;-77
2024/02/21 04:50:31;;;;;;;18.48;8.25;;;;;;;-144.05;79.02;57025.13;5013880;28;20041;-77
2024/02/21 04:52:56;;;;;;;20.75;10.00;;;7.00;99.90;;;-144.05;79.38;57027.25;5014151;28;20494;-76
2024/02/21 04:55:22;;;;;;;16.25;8.18;;;7.10;99.90;;;-144.05;78.89;57018.75;5014324;28;20045;-75
2024/02/21 04:57:48;;;;;;;25.92;10.13;;;10.50;99.90;;;-144.05;78.65;57012.38;5013954;28;20109;-75
2024/02/21 05:00:15;;;;;;;20.23;8.40;;;6.90;99.90;;;-144.05;78.28;56995.38;5012895;28;20026;-78
2024/02/21 05:02:41;;;;;;;22.95;9.35;;;10.70;99.90;;;-144.05;78.00;57040.00;5011571;28;20040;-76
2024/02/21 05:05:07;;;;;;;21.70;7.75;;;7.10;99.90;;;-144.05;77.88;57016.63;5012934;28;20476;-75
2024/02/21 05:07:35;;;;;;;20.50;7.70;;;7.90;99.90;;;-144.05;78.21;57027.25;5011477;28;20479;-75
2024/02/21 05:10:01;;;;;;;21.80;8.57;;;8.20;99.90;;;-144.05;78.26;57016.63;5012190;28;20036;-76
2024/02/21 05:12:27;;;;;;;19.80;7.38;;;7.50;99.90;;;-144.05;78.20;57010.25;5013106;28;20372;-78
2024/02/21 05:14:52;;;;;;;19.35;8.57;;;7.00;99.90;;;-144.05;78.55;57016.63;5013261;28;20048;-75
2024/02/21 05:17:18;;;;;;;17.90;8.85;;;6.70;99.90;;;-144.05;77.96;57023.00;5027791;28;20067;-77
2024/02/21 05:19:44;;;;;;;21.30;8.27;;;7.50;99.90;;;-144.05;78.86;57040.00;5011843;28;20507;-77
2024/02/21 05:22:11;;;;;;;23.15;9.30;;;;;;;-144.05;78.60;57054.88;5011244;28;20070;-77
2024/02/21 05:24:39;;;;;;;24.75;9.02;;;;;;;-144.05;77.86;57014.50;5013948;28;20387;-77
2024/02/21 05:27:05;;;;;;;21.27;8.63;;;6.90;99.90;;;-144.05;77.31;57023.00;5012741;28;20030;-75
2024/02/21 05:29:31;;;;;;;18.92;8.68;;;7.60;99.90;;;-144.05;77.41;57018.75;5012872;28;20041;-77
2024/02/21 05:31:58;;;;;;;16.50;8.07;;;;;;;-144.05;77.28;57012.38;5008959;28;20026;-77
2024/02/21 05:34:25;;;;;;;20.45;8.20;;;;;;;-144.05;76.94;57020.88;5014031;28;20483;-77
2024/02/21 05:36:52;;;;;;;20.77;7.63;;;;;;;-144.05;76.81;57025.13;5013207;28;20041;-77
2024/02/21 05:39:18;;;;;;;20.35;7.50;;;7.80;99.90;;;-144.05;76.10;57044.25;5012233;28;20026;-76
2024/02/21 05:41:45;;;;;;;17.67;6.57;;;7.80;99.90;;;-144.05;75.83;56999.63;5012672;28;20076;-77
2024/02/21 05:44:11;;;;;;;16.67;7.25;;;7.60;99.90;;;-144.05;76.12;57027.25;5012894;28;20097;-77
2024/02/21 05:46:37;;;;;;;20.80;7.65;;;8.10;99.90;;;-144.05;75.42;57014.50;5012823;28;20018;-77
2024/02/21 05:49:05;;;;;;;20.20;7.32;;;7.70;99.90;;;-144.05;75.88;57040.00;5012199;28;20042;-75
2024/02/21 05:51:35;;;;;;;13.50;7.03;;;8.20;99.90;;;-144.05;75.60;57029.38;5013671;28;20046;-78
2024/02/21 05:54:01;;;;;;;17.48;7.07;;;7.80;99.90;;;-144.05;75.79;57020.88;5009235;28;20065;-77
2024/02/21 05:56:28;;;;;;;15.77;7.53;;;7.60;99.90;;;-144.05;75.43;57023.00;5011360;28;20118;-77
2024/02/21 05:58:54;;;;;;;16.90;6.68;;;7.60;99.90;;;-144.05;75.28;57042.13;5013237;28;20030;-77
2024/02/21 06:01:21;;;;;;;18.83;7.57;;;;;;;-144.05;74.77;57035.75;5013284;28;20337;-77
2024/02/21 06:03:47;;;;;;;9.63;5.95;;;10.30;99.90;;;-144.05;75.38;57023.00;5013661;28;20029;-76
2024/02/21 06:06:16;;;;;;;16.85;7.10;;;;;;;-144.05;75.10;57059.09;5013416;28;20042;-76
2024/02/21 06:08:42;;;;;;;17.10;7.43;;;7.30;99.90;;;-144.05;74.74;57018.75;5013464;28;20199;-76
2024/02/21 06:11:08;;;;;;;19.55;6.65;;;8.20;99.90;;;-144.05;74.95;57016.63;5012420;28;20458;-78
2024/02/21 06:13:41;;;;;;;15.50;6.70;;;7.40;99.90;;;-144.05;75.37;57044.25;5013709;28;20033;-75
2024/02/21 06:16:07;;;;;;;19.83;6.45;;;7.30;99.90;;;-144.05;75.12;56991.13;5014352;28;20022;-76
2024/02/21 06:18:37;;;;;;;18.27;6.00;;;13.90;99.90;;;-144.05;74.80;57003.88;5014777;28;20471;-76
2024/02/21 06:21:04;;;;;;;17.08;6.28;;;7.00;99.90;;;-144.05;75.01;57027.25;5013584;28;20026;-78
2024/02/21 06:23:30;;;;;;;18.55;6.00;;;6.90;99.90;;;-144.05;75.23;57046.38;5013978;28;20029;-76
2024/02/21 06:25:56;;;;;;;16.58;6.93;;;13.90;99.90;;;-144.05;75.19;57012.38;5017758;28;20022;-77
2024/02/21 06:28:22;;;;;;;15.82;6.72;;;7.00;99.90;;;-144.05;74.82;57044.25;5015595;28;20041;-78
2024/02/21 06:30:47;;;;;;;11.30;5.78;;;6.90;99.90;;;-144.05;74.39;57029.38;5014627;28;20026;-77
2024/02/21 06:33:13;;;;;;;13.90;5.70;;;7.30;99.90;;;-144.05;74.97;57020.88;5015489;28;20442;-78
2024/02/21 06:35:41;;;;;;;12.80;5.93;;;7.30;99.90;;;-144.05;74.54;56982.66;5014330;28;20033;-77
2024/02/21 06:38:07;;;;;;;13.65;5.75;;;7.30;99.90;;;-144.05;74.12;57016.63;5015066;28;20026;-77
2024/02/21 06:40:38;;;;;;;14.00;6.13;;;7.10;99.90;;;-144.05;74.49;57006.00;5015981;28;20629;-78
2024/02/21 06:43:05;;;;;;;15.15;5.78;;;7.00;99.90;;;-144.05;73.74;57031.50;5015766;28;20427;-75
2024/02/21 06:45:31;;;;;;;15.80;5.78;;;7.00;99.90;;;-144.05;74.04;57042.13;5014683;28;20029;-78
2024/02/21 06:47:57;;;;;;;13.00;5.18;;;7.20;99.90;;;-144.05;73.80;57046.38;5019381;28;20577;-75
2024/02/21 06:50:23;;;;;;;13.05;4.90;;;;;;;-144.05;73.28;56993.25;5035554;28;20080;-79
2024/02/21 06:52:49;;;;;;;16.20;5.40;;;;;;;-144.05;73.06;57031.50;5018564;28;20022;-80
2024/02/21 06:55:16;;;;;;;11.40;4.90;;;7.30;99.90;;;-144.05;73.21;56984.78;5018920;28;20038;-79
2024/02/21 06:57:42;;;;;;;12.68;5.15;;;7.50;99.90;;;-144.05;72.68;57020.88;5018357;28;20030;-78
2024/02/21 07:00:09;;;;;;;10.82;4.93;;;7.60;99.90;;;-144.05;72.19;57012.38;5018577;28;20586;-77
2024/02/21 07:02:35;;;;;;;13.30;4.60;;;;;;;-144.05;72.09;57012.38;5019086;28;20026;-78
2024/02/21 07:05:01;;;;;;;10.23;4.63;;;7.00;99.90;;;-144.05;72.06;57029.38;5019432;28;20033;-77
2024/02/21 07:07:27;;;;;;;12.73;4.75;;;14.00;99.90;;;-144.05;71.55;57029.38;5023161;28;20102;-79
2024/02/21 07:09:54;;;;;;;12.60;4.82;;;;;;;-144.05;71.94;57014.50;5018336;28;20128;-77
2024/02/21 07:12:20;;;;;;;14.75;5.50;;;7.30;99.90;;;-144.05;71.40;57006.00;5019162;28;20030;-79
2024/02/21 07:14:46;;;;;;;10.55;4.20;;;7.00;99.90;;;-144.05;71.27;57012.38;5018722;28;20112;-77
2024/02/21 07:17:12;;;;;;;9.27;3.60;;;8.40;99.90;;;-144.05;71.38;57012.38;5017734;28;20058;-79
2024/02/21 07:19:37;;;;;;;12.85;4.63;;;7.10;99.90;;;-144.05;71.30;57018.75;5018954;28;20049;-78
2024/02/21 07:22:04;;;;;;;11.93;4.25;;;;;;;-144.05;71.33;57020.88;5019804;28;20034;-78
2024/02/21 07:24:31;;;;;;;11.15;4.65;;;6.90;99.90;;;-144.05;71.67;57020.88;5022303;28;20108;-78
2024/02/21 07:26:57;;;;;;;10.80;4.30;;;6.90;99.90;;;-144.05;71.43;57031.50;5018017;28;20034;-78
2024/02/21 07:29:23;;;;;;;14.77;4.32;;;13.60;99.90;;;-144.05;71.27;57031.50;5018545;28;20030;-76
2024/02/21 07:31:51;;;;;;;11.13;4.47;;;6.90;99.90;;;-144.05;71.40;57006.00;5026211;28;20427;-79
2024/02/21 07:34:17;;;;;;;10.30;4.35;;;7.10;99.90;;;-144.05;71.50;57035.75;5026786;28;20026;-77
2024/02/21 07:36:44;;;;;;;10.98;4.47;;;13.70;99.90;;;-144.05;71.44;57023.00;5032207;28;20032;-78
2024/02/21 07:39:10;;;;;;;13.93;5.18;;;7.40;99.90;;;-144.05;71.19;57027.25;5030318;28;20056;-78
2024/02/21 07:41:39;;;;;;;13.68;4.90;;;6.80;99.90;;;-144.05;71.54;56995.38;5032119;28;20072;-76
2024/02/21 07:44:05;;;;;;;11.93;4.85;;;13.40;99.90;;;-144.05;70.80;57014.50;5036273;28;20034;-77
2024/02/21 07:46:31;;;;;;;9.98;4.47;;;;;;;-144.05;71.01;57018.75;5020593;28;20104;-76
2024/02/21 07:48:57;;;;;;;10.63;4.85;;;8.10;99.90;;;-144.05;71.03;57010.25;5021042;28;20154;-78
2024/02/21 07:51:28;;;;;;;13.93;4.38;;;7.40;99.90;;;-144.05;71.34;57018.75;5020500;28;20017;-76
2024/02/21 07:53:54;;;;;;;12.82;5.20;;;7.20;99.90;;;-144.05;70.68;57018.75;5018198;28;20400;-78
2024/02/21 07:56:19;;;;;;;11.77;5.25;;;11.00;99.90;;;-144.05;70.73;57029.38;5019216;28;20033;-79
2024/02/21 07:58:45;;;;;;;10.70;4.68;;;6.90;99.90;;;-144.05;70.32;57003.88;5016881;28;20029;-76
2024/02/21 08:01:11;;;;;;;10.18;5.10;;;7.20;99.90;;;-144.05;70.39;57040.00;5033837;28;20034;-79
2024/02/21 08:03:37;;;;;;;10.30;4.47;;;8.00;99.90;;;-144.05;70.62;57023.00;5018409;28;20495;-76
2024/02/21 08:06:04;;;;;;;9.73;4.97;;;7.20;99.90;;;-144.05;70.86;57020.88;5017995;28;20034;-77
2024/02/21 08:08:30;;;;;;;20.98;5.60;;;14.20;99.90;;;-144.05;70.52;57023.00;5017218;28;20034;-79
2024/02/21 08:10:56;;;;;;;14.70;6.32;;;11.10;99.90;;;-144.05;71.10;57033.63;5019960;28;20036;-77
2024/02/21 08:13:22;;;;;;;20.77;6.35;;;7.20;99.90;;;-144.05;70.27;57018.75;5019776;28;20407;-78
2024/02/21 08:15:47;;;;;;;12.90;5.22;;;10.80;99.90;;;-144.05;70.17;57018.75;5016963;28;20022;-77
2024/02/21 08:18:13;;;;;;;10.68;5.13;;;7.20;99.90;;;-144.05;70.59;57018.75;5018539;28;20431;-77
2024/02/21 08:20:39;;;;;;;14.70;5.75;;;6.80;99.90;;;-144.05;70.25;57031.50;5018287;28;20026;-78
2024/02/21 08:23:05;;;;;;;13.85;5.93;;;7.80;99.90;;;-144.05;70.61;57023.00;5017472;28;20475;-78
2024/02/21 08:25:31;;;;;;;16.52;5.07;;;11.00;99.90;;;-144.05;70.00;57001.75;5021239;28;20483;-79
2024/02/21 08:27:59;;;;;;;11.18;5.18;;;7.10;99.90;;;-144.05;70.31;57020.88;5017836;28;20109;-76
2024/02/21 08:30:26;;;;;;;10.10;5.45;;;7.50;99.90;;;-144.05;70.46;57006.00;5018189;28;20083;-77
2024/02/21 08:32:53;;;;;;;10.18;4.63;;;7.20;99.90;;;-144.05;70.70;57006.00;5017945;28;20033;-78
2024/02/21 08:35:22;;;;;;;11.98;5.03;;;11.00;99.90;;;-144.05;70.10;57001.75;5018740;28;20108;-78
2024/02/21 08:37:48;;;;;;;12.05;4.85;;;6.70;99.90;;;-144.05;70.55;57012.38;5016688;28;20036;-77
2024/02/21 08:40:20;;;;;;;10.25;4.95;;;9.30;99.90;;;-144.05;70.12;57012.38;5017860;28;20025;-77
2024/02/21 08:42:47;;;;;;;13.05;4.80;;;13.70;99.90;;;-144.05;70.00;57025.13;5015273;28;20034;-78
2024/02/21 08:45:13;;;;;;;11.05;4.72;;;13.50;99.90;;;-144.05;69.60;56999.63;5018485;28;20563;-77
2024/02/21 08:47:40;;;;;;;12.32;4.38;;;10.30;99.90;;;-144.05;69.35;57027.25;5033808;28;20406;-76
2024/02/21 08:50:09;;;;;;;10.40;4.00;;;13.40;99.90;;;-144.05;69.32;57008.13;5018117;28;20061;-78
2024/02/21 08:52:36;;;;;;;11.40;4.53;;;;;;;-144.05;69.38;57031.50;5031769;28;20101;-77
2024/02/21 08:55:01;;;;;;;10.27;4.50;;;7.50;99.90;;;-144.05;70.19;57014.50;5016556;28;20464;-77
2024/02/21 08:57:28;;;;;;;10.55;4.25;;;;;;;-144.05;70.43;57029.38;5016929;28;20081;-78
2024/02/21 08:59:54;;;;;;;10.65;3.50;;;13.40;99.90;;;-144.05;70.70;57027.25;5018701;28;20037;-76
2024/02/21 09:02:20;;;;;;;12.93;3.95;;;;;;;-144.05;70.87;57027.25;5017526;28;20112;-75
2024/02/21 09:04:46;;;;;;;9.65;3.88;;;;;;;-144.05;71.19;57014.50;5018577;28;20029;-76
2024/02/21 09:07:12;;;;;;;9.80;4.32;;;8.30;99.90;;;-144.05;72.17;57035.75;5020899;28;20097;-76
2024/02/21 09:09:39;;;;;;;8.48;4.22;;;7.10;99.90;;;-144.05;72.29;57020.88;5019040;28;20479;-75
2024/02/21 09:12:08;;;;;;;11.88;5.10;;;7.30;99.90;;;-144.05;72.88;57006.00;5033945;28;20030;-75
2024/02/21 09:14:40;;;;;;;13.93;6.28;;;9.10;99.90;;;-144.05;73.72;57025.13;5019084;28;20455;-76
2024/02/21 09:17:06;;;;;;;16.73;6.13;;;7.30;99.90;;;-144.05;73.85;57018.75;5017735;28;20034;-78
2024/02/21 09:19:33;;;;;;;18.90;6.75;;;7.00;99.90;;;-144.05;74.70;57003.88;5018507;28;20037;-77
2024/02/21 09:21:59;;;;;;;16.60;7.47;;;7.10;99.90;;;-144.05;75.73;57020.88;5018412;28;20025;-76
2024/02/21 09:24:24;;;;;;;15.82;6.93;;;6.50;99.90;;;-144.05;76.22;57033.63;5021899;28;20463;-77
2024/02/21 09:26:51;;;;;;;15.20;6.63;;;;;;;-144.05;76.17;57027.25;5018431;28;20029;-77
2024/02/21 09:29:17;;;;;;;15.93;7.40;;;6.60;99.90;;;-144.05;76.19;57029.38;5018005;28;20036;-76
2024/02/21 09:31:43;;;;;;;20.17;6.22;;;7.10;99.90;;;-144.05;76.14;57040.00;5018790;28;20108;-77
2024/02/21 09:34:10;;;;;;;18.52;7.82;;;;;;;-144.05;76.15;57025.13;5018712;28;20068;-75
2024/02/21 09:36:38;;;;;;;17.90;8.80;;;;;;;-144.05;76.00;57012.38;5019154;28;20034;-76
2024/02/21 09:39:04;;;;;;;17.13;8.15;;;13.80;99.90;;;-144.05;76.24;57020.88;5018583;28;20133;-76
2024/02/21 09:41:30;;;;;;;15.45;9.05;;;;;;;-144.05;76.27;57016.63;5019178;28;20050;-77
2024/02/21 09:43:56;;;;;;;15.23;8.13;;;10.90;99.90;;;-144.05;76.04;57031.50;5018493;28;20034;-77
2024/02/21 09:47:05;;;;;;;20.63;9.20;;;7.20;99.90;;;-144.05;76.32;57012.38;5016479;28;20034;-77
2024/02/21 09:49:34;;;;;;;18.88;8.65;;;6.90;99.90;;;-144.05;76.46;57010.25;5015794;28;20090;-79
2024/02/21 09:52:04;;;;;;;17.27;7.90;;;7.20;99.90;;;-144.05;76.14;57016.63;5018694;28;20022;-78
2024/02/21 09:54:33;;;;;;;18.55;8.68;;;7.50;99.90;;;-144.05;76.49;57040.00;5016968;28;20030;-80
2024/02/21 09:57:04;;;;;;;21.05;8.95;;;10.70;99.90;;;-144.05;75.49;57008.13;5012197;28;20048;-79
2024/02/21 09:59:33;;;;;;;18.48;8.30;;;7.30;99.90;;;-144.05;75.75;57035.75;5040277;28;20026;-78
2024/02/21 10:02:00;;;;;;;24.50;9.00;;;;;;;-144.05;75.94;57027.25;5014170;28;20025;-80
2024/02/21 10:04:26;;;;;;;20.35;8.68;;;7.30;99.90;;;-144.05;75.86;57023.00;5015972;28;20557;-79
2024/02/21 10:06:54;;;;;;;15.45;8.15;;;7.40;99.90;;;-144.05;75.80;56995.38;5016411;28;21448;-79
2024/02/21 10:09:28;;;;;;;15.25;6.88;;;7.30;99.90;;;-144.05;75.58;57025.13;5017171;28;20107;-81
2024/02/21 10:12:07;;;;;;;17.15;8.30;;;7.00;99.90;;;-144.05;75.41;57027.25;5016627;28;20438;-79
2024/02/21 10:14:33;;;;;;;15.35;7.32;;;;;;;-144.05;75.28;57063.34;5032177;28;20030;-77